createdAt,value
2022-12-24T00:01:37.068Z,100.00
2022-12-24T00:04:06.039Z,100.00
2022-12-24T00:06:34.572Z,100.00
2022-12-24T00:09:03.156Z,100.00
2022-12-24T00:11:33.137Z,100.00
2022-12-24T00:14:01.832Z,100.00
2022-12-24T00:16:30.189Z,100.00
2022-12-24T00:18:58.624Z,100.00
2022-12-24T00:21:27.100Z,100.00
2022-12-24T00:23:55.457Z,100.00
2022-12-24T00:26:23.928Z,100.00
2022-12-24T00:28:53.778Z,100.00
2022-12-24T00:31:22.452Z,100.00
2022-12-24T00:33:50.930Z,98.43
2022-12-24T00:36:25.775Z,96.35
2022-12-24T00:38:54.203Z,93.69
2022-12-24T00:41:26.173Z,94.38
2022-12-24T00:43:59.224Z,93.37
2022-12-24T00:46:30.081Z,92.64
2022-12-24T00:48:58.680Z,92.03
2022-12-24T00:51:27.760Z,93.50
2022-12-24T00:53:56.287Z,94.23
2022-12-24T00:56:24.966Z,94.76
2022-12-24T00:58:55.442Z,95.11
2022-12-24T01:01:24.411Z,95.00
2022-12-24T01:04:12.947Z,96.44
2022-12-24T01:06:40.440Z,96.92
2022-12-24T01:09:08.923Z,96.89
2022-12-24T01:11:37.374Z,97.55
2022-12-24T01:14:07.213Z,97.22
2022-12-24T01:16:35.658Z,97.88
2022-12-24T01:19:04.320Z,97.27
2022-12-24T01:21:32.682Z,97.16
2022-12-24T01:24:01.028Z,96.43
2022-12-24T01:26:29.399Z,97.08
2022-12-24T01:28:57.816Z,97.35
2022-12-24T01:31:27.565Z,97.45
2022-12-24T01:33:55.920Z,95.66
2022-12-24T01:36:24.328Z,94.62
2022-12-24T01:38:52.699Z,93.82
2022-12-24T01:41:41.467Z,94.63
2022-12-24T01:44:33.511Z,94.22
2022-12-24T01:47:12.873Z,94.14
2022-12-24T01:49:46.669Z,94.03
2022-12-24T01:52:19.150Z,94.02
2022-12-24T01:54:52.358Z,93.82
2022-12-24T01:57:27.590Z,92.92
2022-12-24T02:00:01.333Z,93.51
2022-12-24T02:02:33.379Z,92.95
2022-12-24T02:05:09.150Z,92.25
2022-12-24T02:07:38.142Z,92.22
2022-12-24T02:10:10.809Z,91.98
2022-12-24T02:12:40.531Z,92.73
2022-12-24T02:15:13.540Z,92.00
2022-12-24T02:17:53.273Z,92.08
2022-12-24T02:20:53.446Z,92.45
2022-12-24T02:23:46.298Z,92.54
2022-12-24T02:26:36.067Z,93.45
2022-12-24T02:29:28.517Z,93.56
2022-12-24T02:32:03.872Z,94.21
2022-12-24T02:34:38.362Z,94.11
2022-12-24T02:37:13.737Z,94.28
2022-12-24T02:39:46.648Z,94.73
2022-12-24T02:42:21.846Z,95.01
2022-12-24T02:44:55.727Z,94.69
2022-12-24T02:47:31.003Z,94.49
2022-12-24T02:50:04.086Z,94.13
2022-12-24T02:52:35.968Z,94.31
2022-12-24T02:55:10.832Z,94.60
2022-12-24T02:58:00.221Z,94.03
2022-12-24T03:00:31.881Z,94.05
2022-12-24T03:03:31.742Z,93.92
2022-12-24T03:06:09.619Z,94.25
2022-12-24T03:08:46.325Z,94.06
2022-12-24T03:11:15.965Z,93.92
2022-12-24T03:13:45.775Z,93.72
2022-12-24T03:16:19.069Z,94.00
2022-12-24T03:18:51.002Z,94.24
2022-12-24T03:21:26.703Z,93.69
2022-12-24T03:23:55.164Z,93.51
2022-12-24T03:26:24.783Z,93.70
2022-12-24T03:28:53.369Z,93.42
2022-12-24T03:31:22.292Z,93.49
2022-12-24T03:33:53.048Z,93.26
2022-12-24T03:36:21.418Z,93.53
2022-12-24T03:38:49.801Z,93.83
2022-12-24T03:41:18.296Z,94.05
2022-12-24T03:43:46.691Z,93.25
2022-12-24T03:46:15.078Z,93.53
2022-12-24T03:48:43.641Z,93.85
2022-12-24T03:51:19.874Z,93.63
2022-12-24T03:53:49.099Z,93.23
2022-12-24T03:56:20.512Z,93.26
2022-12-24T03:58:49.607Z,93.56
2022-12-24T04:01:19.264Z,93.25
2022-12-24T04:03:47.786Z,93.44
2022-12-24T04:06:19.040Z,93.51
2022-12-24T04:08:47.391Z,93.82
2022-12-24T04:11:19.414Z,93.49
2022-12-24T04:13:47.739Z,93.62
2022-12-24T04:16:18.279Z,93.88
2022-12-24T04:18:47.011Z,93.79
2022-12-24T04:21:15.470Z,94.31
2022-12-24T04:23:45.338Z,94.63
2022-12-24T04:26:15.304Z,94.48
2022-12-24T04:28:44.413Z,94.28
2022-12-24T04:31:16.460Z,94.50
2022-12-24T04:33:45.683Z,94.76
2022-12-24T04:36:17.948Z,94.94
2022-12-24T04:38:49.322Z,95.14
2022-12-24T04:41:23.724Z,95.43
2022-12-24T04:43:53.331Z,95.34
2022-12-24T04:46:24.244Z,94.86
2022-12-24T04:48:54.981Z,95.24
2022-12-24T04:51:24.112Z,95.52
2022-12-24T04:53:54.052Z,95.46
2022-12-24T04:56:24.942Z,95.73
2022-12-24T04:58:54.165Z,95.80
2022-12-24T05:01:25.256Z,95.49
2022-12-24T05:03:55.316Z,95.61
2022-12-24T05:06:26.213Z,95.73
2022-12-24T05:08:58.408Z,96.15
2022-12-24T05:11:27.442Z,95.70
2022-12-24T05:13:56.022Z,96.25
2022-12-24T05:16:26.088Z,96.08
2022-12-24T05:18:55.057Z,96.16
2022-12-24T05:21:25.856Z,96.57
2022-12-24T05:24:13.393Z,96.56
2022-12-24T05:26:44.810Z,96.78
2022-12-24T05:29:14.229Z,97.11
2022-12-24T05:31:45.056Z,97.37
2022-12-24T05:34:14.646Z,98.07
2022-12-24T05:36:43.924Z,97.88
2022-12-24T05:39:16.911Z,99.11
2022-12-24T05:41:46.134Z,98.81
2022-12-24T05:44:14.901Z,98.91
2022-12-24T05:46:43.767Z,98.72
2022-12-24T05:49:12.171Z,99.94
2022-12-24T05:51:41.257Z,100.00
2022-12-24T05:54:09.633Z,99.79
2022-12-24T05:56:39.358Z,99.88
2022-12-24T05:59:07.813Z,100.00
2022-12-24T06:01:36.367Z,100.00
2022-12-24T06:04:04.978Z,100.00
2022-12-24T06:06:33.371Z,100.00
2022-12-24T06:09:01.694Z,100.00
2022-12-24T06:11:30.527Z,100.00
2022-12-24T06:14:00.255Z,100.00
2022-12-24T06:16:28.744Z,100.00
2022-12-24T06:18:57.277Z,100.00
2022-12-24T06:21:25.699Z,100.00
2022-12-24T06:23:54.089Z,100.00
2022-12-24T06:26:24.224Z,100.00
2022-12-24T06:28:53.205Z,100.00
2022-12-24T06:31:24.816Z,100.00
2022-12-24T06:33:53.941Z,100.00
2022-12-24T06:36:26.168Z,100.00
2022-12-24T06:38:56.032Z,100.00
2022-12-24T06:41:25.347Z,100.00
2022-12-24T06:43:54.580Z,100.00
2022-12-24T06:46:24.470Z,100.00
2022-12-24T06:48:53.010Z,100.00
2022-12-24T06:51:21.610Z,100.00
2022-12-24T06:53:51.594Z,100.00
2022-12-24T06:56:21.721Z,100.00
2022-12-24T06:58:50.363Z,100.00
2022-12-24T07:01:20.806Z,100.00
2022-12-24T07:03:51.295Z,100.00
2022-12-24T07:06:23.648Z,100.00
2022-12-24T07:08:51.960Z,100.00
2022-12-24T07:11:20.441Z,100.00
2022-12-24T07:13:49.267Z,100.00
2022-12-24T07:16:18.357Z,100.00
2022-12-24T07:18:47.137Z,100.00
2022-12-24T07:21:17.049Z,100.00
2022-12-24T07:23:45.371Z,100.00
2022-12-24T07:26:13.747Z,100.00
2022-12-24T07:28:42.063Z,100.00
2022-12-24T07:31:10.493Z,100.00
2022-12-24T07:33:38.840Z,100.00
2022-12-24T07:36:10.124Z,100.00
2022-12-24T07:38:39.929Z,100.00
2022-12-24T07:41:08.299Z,100.00
2022-12-24T07:43:36.664Z,100.00
2022-12-24T07:46:05.567Z,100.00
2022-12-24T07:48:34.443Z,100.00
2022-12-24T07:51:02.943Z,100.00
2022-12-24T07:53:33.016Z,100.00
2022-12-24T07:56:07.529Z,100.00
2022-12-24T07:58:38.930Z,100.00
2022-12-24T08:01:07.571Z,100.00
2022-12-24T08:03:36.141Z,100.00
2022-12-24T08:06:04.919Z,100.00
2022-12-24T08:08:33.234Z,100.00
2022-12-24T08:11:05.100Z,100.00
2022-12-24T08:13:34.447Z,100.00
2022-12-24T08:16:02.906Z,100.00
2022-12-24T08:18:31.766Z,100.00
2022-12-24T08:21:00.379Z,100.00
2022-12-24T08:23:28.704Z,100.00
2022-12-24T08:25:57.168Z,100.00
2022-12-24T08:28:26.988Z,100.00
2022-12-24T08:30:55.795Z,100.00
2022-12-24T08:33:24.093Z,100.00
2022-12-24T08:35:54.931Z,100.00
2022-12-24T08:38:23.647Z,100.00
2022-12-24T08:40:55.109Z,100.00
2022-12-24T08:43:25.509Z,100.00
2022-12-24T08:45:55.425Z,100.00
2022-12-24T08:48:23.902Z,100.00
2022-12-24T08:50:52.268Z,100.00
2022-12-24T08:53:20.651Z,100.00
2022-12-24T08:55:55.633Z,100.00
2022-12-24T08:58:24.700Z,100.00
2022-12-24T09:00:54.431Z,100.00
2022-12-24T09:03:27.441Z,100.00
2022-12-24T09:05:56.440Z,100.00
2022-12-24T09:08:24.847Z,100.00
2022-12-24T09:10:53.273Z,100.00
2022-12-24T09:13:21.651Z,100.00
2022-12-24T09:15:56.375Z,100.00
2022-12-24T09:18:26.195Z,100.00
2022-12-24T09:21:01.034Z,100.00
2022-12-24T09:23:30.229Z,100.00
2022-12-24T09:25:58.914Z,100.00
2022-12-24T09:28:27.267Z,100.00
2022-12-24T09:31:02.371Z,100.00
2022-12-24T09:33:33.759Z,100.00
2022-12-24T09:36:02.726Z,100.00
2022-12-24T09:38:31.298Z,100.00
2022-12-24T09:41:05.400Z,100.00
2022-12-24T09:43:38.808Z,100.00
2022-12-24T09:46:17.835Z,100.00
2022-12-24T09:48:50.774Z,100.00
2022-12-24T09:51:28.501Z,100.00
2022-12-24T09:54:01.820Z,100.00
2022-12-24T09:56:36.292Z,100.00
2022-12-24T09:59:07.504Z,100.00
2022-12-24T10:01:37.382Z,100.00
2022-12-24T10:04:11.281Z,100.00
2022-12-24T10:06:48.839Z,100.00
2022-12-24T10:09:26.922Z,100.00
2022-12-24T10:12:05.166Z,100.00
2022-12-24T10:14:50.685Z,100.00
2022-12-24T10:17:42.641Z,100.00
2022-12-24T10:20:34.209Z,100.00
2022-12-24T10:23:13.051Z,100.00
2022-12-24T10:25:51.067Z,100.00
2022-12-24T10:28:35.614Z,100.00
2022-12-24T10:31:08.389Z,100.00
2022-12-24T10:33:43.282Z,100.00
2022-12-24T10:36:19.068Z,100.00
2022-12-24T10:38:47.959Z,100.00
2022-12-24T10:41:17.526Z,100.00
2022-12-24T10:43:47.898Z,100.00
2022-12-24T10:46:23.138Z,100.00
2022-12-24T10:48:59.893Z,100.00
2022-12-24T10:51:41.986Z,100.00
2022-12-24T10:54:14.681Z,100.00
2022-12-24T10:56:46.559Z,100.00
2022-12-24T10:59:28.103Z,100.00
2022-12-24T11:01:59.160Z,100.00
2022-12-24T11:04:31.759Z,100.00
2022-12-24T11:07:02.584Z,100.00
2022-12-24T11:09:33.566Z,100.00
2022-12-24T11:12:09.353Z,100.00
2022-12-24T11:14:40.243Z,100.00
2022-12-24T11:17:11.277Z,100.00
2022-12-24T11:19:41.122Z,100.00
2022-12-24T11:22:19.694Z,100.00
2022-12-24T11:24:59.770Z,100.00
2022-12-24T11:27:40.390Z,100.00
2022-12-24T11:30:29.481Z,100.00
2022-12-24T11:33:21.738Z,100.00
2022-12-24T11:36:03.489Z,100.00
2022-12-24T11:38:35.256Z,100.00
2022-12-24T11:41:08.391Z,100.00
2022-12-24T11:43:47.667Z,100.00
2022-12-24T11:46:24.163Z,100.00
2022-12-24T11:49:15.293Z,100.00
2022-12-24T11:52:19.509Z,100.00
2022-12-24T11:55:07.687Z,100.00
2022-12-24T11:57:49.804Z,100.00
2022-12-24T12:00:19.195Z,100.00
2022-12-24T12:02:51.273Z,100.00
2022-12-24T12:05:23.463Z,100.00
2022-12-24T12:07:58.096Z,100.00
2022-12-24T12:10:31.354Z,100.00
2022-12-24T12:13:09.777Z,100.00
2022-12-24T12:15:45.941Z,100.00
2022-12-24T12:18:18.250Z,100.00
2022-12-24T12:20:50.905Z,100.00
2022-12-24T12:23:27.641Z,100.00
2022-12-24T12:26:00.371Z,100.00
2022-12-24T12:28:37.676Z,100.00
2022-12-24T12:31:16.909Z,100.00
2022-12-24T12:33:50.051Z,97.36
2022-12-24T12:36:23.078Z,95.11
2022-12-24T12:38:53.263Z,95.35
2022-12-24T12:41:46.647Z,95.35
2022-12-24T12:44:48.191Z,95.46
2022-12-24T12:47:45.074Z,96.02
2022-12-24T12:50:20.001Z,95.64
2022-12-24T12:53:14.993Z,94.83
2022-12-24T12:55:54.416Z,94.16
2022-12-24T12:58:28.921Z,94.19
2022-12-24T13:01:04.569Z,93.13
2022-12-24T13:04:25.303Z,92.93
2022-12-24T13:07:18.770Z,91.93
2022-12-24T13:10:14.728Z,91.55
2022-12-24T13:13:20.068Z,92.06
2022-12-24T13:16:04.845Z,93.54
2022-12-24T13:19:05.707Z,97.18
2022-12-24T13:21:35.313Z,96.21
2022-12-24T13:24:16.631Z,97.19
2022-12-24T13:27:01.347Z,97.90
2022-12-24T13:29:53.353Z,98.27
2022-12-24T13:32:51.258Z,98.50
2022-12-24T13:36:00.621Z,98.70
2022-12-24T13:38:42.689Z,97.88
2022-12-24T13:41:46.874Z,97.29
2022-12-24T13:44:33.725Z,97.81
2022-12-24T13:47:30.192Z,98.09
2022-12-24T13:50:23.191Z,98.46
2022-12-24T13:52:54.547Z,98.49
2022-12-24T13:55:23.535Z,98.19
2022-12-24T13:57:58.695Z,98.17
2022-12-24T14:00:34.859Z,98.10
2022-12-24T14:03:17.410Z,98.45
2022-12-24T14:05:50.080Z,99.12
2022-12-24T14:08:31.909Z,98.98
2022-12-24T14:11:08.912Z,99.25
2022-12-24T14:14:11.121Z,100.00
2022-12-24T14:16:50.256Z,99.84
2022-12-24T14:19:23.058Z,99.87
2022-12-24T14:22:03.984Z,100.00
2022-12-24T14:24:36.642Z,100.00
2022-12-24T14:27:16.050Z,100.00
2022-12-24T14:29:52.405Z,100.00
2022-12-24T14:32:21.210Z,100.00
2022-12-24T14:35:08.355Z,100.00
2022-12-24T14:37:37.236Z,100.00
2022-12-24T14:40:08.531Z,100.00
2022-12-24T14:42:47.833Z,100.00
2022-12-24T14:45:29.533Z,100.00
2022-12-24T14:48:08.006Z,100.00
2022-12-24T14:50:58.683Z,100.00
2022-12-24T14:53:51.033Z,100.00
2022-12-24T14:56:22.527Z,100.00
2022-12-24T14:58:51.538Z,100.00
2022-12-24T15:01:24.319Z,100.00
2022-12-24T15:04:04.940Z,100.00
2022-12-24T15:06:37.526Z,100.00
2022-12-24T15:09:07.584Z,100.00
2022-12-24T15:11:37.182Z,100.00
2022-12-24T15:14:06.898Z,100.00
2022-12-24T15:16:37.613Z,100.00
2022-12-24T15:19:09.399Z,100.00
2022-12-24T15:21:41.706Z,100.00
2022-12-24T15:24:26.673Z,100.00
2022-12-24T15:26:55.727Z,100.00
2022-12-24T15:29:27.470Z,100.00
2022-12-24T15:31:58.020Z,100.00
2022-12-24T15:34:37.143Z,100.00
2022-12-24T15:37:15.747Z,100.00
2022-12-24T15:39:45.045Z,100.00
2022-12-24T15:42:20.060Z,100.00
2022-12-24T15:45:00.658Z,100.00
2022-12-24T15:47:37.801Z,100.00
2022-12-24T15:50:16.238Z,100.00
2022-12-24T15:52:47.352Z,100.00
2022-12-24T15:55:32.359Z,100.00
2022-12-24T15:58:02.360Z,100.00
2022-12-24T16:00:32.484Z,100.00
2022-12-24T16:03:13.524Z,100.00
2022-12-24T16:05:42.089Z,100.00
2022-12-24T16:08:31.584Z,100.00
2022-12-24T16:11:19.300Z,100.00
2022-12-24T16:14:04.316Z,100.00
2022-12-24T16:16:39.271Z,100.00
2022-12-24T16:19:09.289Z,100.00
2022-12-24T16:21:41.388Z,100.00
2022-12-24T16:24:19.186Z,100.00
2022-12-24T16:26:48.440Z,100.00
2022-12-24T16:29:19.369Z,100.00
2022-12-24T16:31:52.090Z,100.00
2022-12-24T16:34:24.618Z,100.00
2022-12-24T16:36:53.145Z,100.00
2022-12-24T16:39:25.837Z,100.00
2022-12-24T16:42:13.336Z,100.00
2022-12-24T16:44:42.353Z,100.00
2022-12-24T16:47:22.084Z,100.00
2022-12-24T16:49:51.644Z,100.00
2022-12-24T16:52:22.593Z,100.00
2022-12-24T16:54:52.409Z,100.00
2022-12-24T16:57:21.172Z,100.00
2022-12-24T16:59:49.721Z,100.00
2022-12-24T17:02:20.264Z,100.00
2022-12-24T17:04:49.365Z,100.00
2022-12-24T17:07:19.837Z,100.00
2022-12-24T17:09:48.222Z,100.00
2022-12-24T17:12:18.027Z,100.00
2022-12-24T17:14:46.431Z,100.00
2022-12-24T17:17:24.598Z,100.00
2022-12-24T17:19:53.186Z,100.00
2022-12-24T17:22:21.603Z,100.00
2022-12-24T17:24:50.036Z,100.00
2022-12-24T17:27:19.707Z,100.00
2022-12-24T17:29:48.120Z,100.00
2022-12-24T17:32:16.614Z,100.00
2022-12-24T17:34:45.093Z,100.00
2022-12-24T17:37:13.481Z,100.00
2022-12-24T17:39:41.873Z,100.00
2022-12-24T17:42:10.250Z,100.00
2022-12-24T17:44:40.141Z,100.00
2022-12-24T17:47:08.691Z,100.00
2022-12-24T17:49:37.275Z,100.00
2022-12-24T17:52:06.093Z,100.00
2022-12-24T17:54:34.497Z,100.00
2022-12-24T17:57:02.934Z,100.00
2022-12-24T17:59:31.327Z,100.00
2022-12-24T18:02:01.179Z,100.00
2022-12-24T18:04:29.705Z,100.00
2022-12-24T18:07:02.537Z,100.00
2022-12-24T18:09:31.940Z,100.00
2022-12-24T18:12:00.997Z,100.00
2022-12-24T18:14:29.705Z,100.00
2022-12-24T18:16:58.085Z,100.00
2022-12-24T18:19:28.038Z,100.00
2022-12-24T18:21:56.605Z,100.00
2022-12-24T18:24:25.750Z,100.00
2022-12-24T18:26:55.221Z,100.00
2022-12-24T18:29:23.681Z,100.00
2022-12-24T18:31:52.640Z,100.00
2022-12-24T18:34:21.209Z,100.00
2022-12-24T18:36:55.045Z,100.00
2022-12-24T18:39:24.130Z,100.00
2022-12-24T18:41:52.615Z,100.00
2022-12-24T18:44:25.305Z,100.00
2022-12-24T18:46:54.308Z,100.00
2022-12-24T18:49:22.852Z,100.00
2022-12-24T18:51:52.608Z,100.00
2022-12-24T18:54:21.029Z,100.00
2022-12-24T18:56:52.263Z,100.00
2022-12-24T18:59:20.688Z,100.00
2022-12-24T19:01:49.263Z,100.00
2022-12-24T19:04:17.912Z,100.00
2022-12-24T19:06:52.774Z,100.00
2022-12-24T19:09:23.974Z,100.00
2022-12-24T19:11:52.320Z,100.00
2022-12-24T19:14:21.115Z,100.00
2022-12-24T19:16:49.556Z,100.00
2022-12-24T19:19:18.846Z,100.00
2022-12-24T19:21:47.219Z,100.00
2022-12-24T19:24:15.638Z,100.00
2022-12-24T19:26:45.333Z,100.00
2022-12-24T19:29:13.787Z,100.00
2022-12-24T19:31:44.356Z,100.00
2022-12-24T19:34:12.779Z,100.00
2022-12-24T19:36:41.249Z,100.00
2022-12-24T19:39:09.647Z,100.00
2022-12-24T19:41:38.134Z,100.00
2022-12-24T19:44:07.944Z,100.00
2022-12-24T19:46:38.103Z,100.00
2022-12-24T19:49:09.226Z,100.00
2022-12-24T19:51:37.806Z,100.00
2022-12-24T19:54:13.423Z,100.00
2022-12-24T19:56:48.409Z,100.00
2022-12-24T19:59:18.080Z,100.00
2022-12-24T20:01:47.216Z,100.00
2022-12-24T20:04:18.332Z,100.00
2022-12-24T20:06:47.877Z,100.00
2022-12-24T20:09:16.206Z,100.00
2022-12-24T20:11:44.635Z,100.00
2022-12-24T20:14:13.620Z,100.00
2022-12-24T20:16:43.510Z,100.00
2022-12-24T20:19:15.443Z,100.00
2022-12-24T20:21:43.853Z,100.00
2022-12-24T20:24:12.294Z,100.00
2022-12-24T20:26:41.065Z,100.00
2022-12-24T20:29:12.713Z,100.00
2022-12-24T20:31:42.706Z,100.00
2022-12-24T20:34:12.370Z,100.00
2022-12-24T20:36:40.833Z,100.00
2022-12-24T20:39:09.251Z,100.00
2022-12-24T20:41:38.073Z,100.00
2022-12-24T20:44:06.806Z,100.00
2022-12-24T20:46:35.655Z,100.00
2022-12-24T20:49:05.646Z,100.00
2022-12-24T20:51:34.116Z,100.00
2022-12-24T20:54:02.850Z,100.00
2022-12-24T20:56:31.956Z,100.00
2022-12-24T20:59:01.799Z,100.00
2022-12-24T21:01:31.250Z,100.00
2022-12-24T21:04:04.582Z,100.00
2022-12-24T21:06:35.738Z,100.00
2022-12-24T21:09:05.823Z,100.00
2022-12-24T21:11:52.115Z,100.00
2022-12-24T21:14:24.828Z,100.00
2022-12-24T21:16:55.509Z,100.00
2022-12-24T21:19:26.189Z,100.00
2022-12-24T21:21:56.153Z,100.00
2022-12-24T21:24:24.525Z,100.00
2022-12-24T21:26:52.893Z,100.00
2022-12-24T21:29:21.382Z,100.00
2022-12-24T21:31:49.820Z,100.00
2022-12-24T21:34:18.221Z,100.00
2022-12-24T21:36:46.663Z,100.00
2022-12-24T21:39:16.490Z,100.00
2022-12-24T21:41:44.959Z,100.00
2022-12-24T21:44:13.372Z,100.00
2022-12-24T21:46:41.798Z,100.00
2022-12-24T21:49:29.971Z,100.00
2022-12-24T21:51:59.789Z,100.00
2022-12-24T21:54:30.743Z,100.00
2022-12-24T21:57:15.610Z,100.00
2022-12-24T21:59:45.010Z,100.00
2022-12-24T22:02:15.452Z,100.00
2022-12-24T22:04:44.754Z,100.00
2022-12-24T22:07:40.045Z,100.00
2022-12-24T22:10:29.323Z,100.00
2022-12-24T22:13:00.464Z,100.00
2022-12-24T22:15:28.885Z,100.00
2022-12-24T22:17:57.299Z,100.00
2022-12-24T22:20:25.972Z,100.00
2022-12-24T22:22:54.596Z,100.00
2022-12-24T22:25:24.405Z,100.00
2022-12-24T22:27:52.834Z,100.00
2022-12-24T22:30:21.440Z,100.00
2022-12-24T22:32:49.879Z,100.00
2022-12-24T22:35:18.481Z,100.00
2022-12-24T22:37:47.221Z,100.00
2022-12-24T22:40:16.162Z,100.00
2022-12-24T22:42:45.890Z,100.00
2022-12-24T22:45:20.044Z,100.00
2022-12-24T22:47:50.575Z,100.00
2022-12-24T22:50:19.376Z,100.00
2022-12-24T22:52:47.718Z,100.00
2022-12-24T22:55:16.269Z,100.00
2022-12-24T22:57:45.969Z,100.00
2022-12-24T23:00:37.225Z,100.00
2022-12-24T23:03:06.625Z,100.00
2022-12-24T23:05:35.271Z,100.00
2022-12-24T23:08:03.841Z,100.00
2022-12-24T23:10:32.508Z,100.00
2022-12-24T23:13:19.768Z,100.00
2022-12-24T23:15:48.272Z,100.00
2022-12-24T23:18:16.646Z,100.00
2022-12-24T23:20:46.596Z,100.00
2022-12-24T23:23:16.161Z,100.00
2022-12-24T23:25:44.567Z,100.00
2022-12-24T23:28:14.298Z,100.00
2022-12-24T23:30:42.780Z,100.00
2022-12-24T23:33:11.191Z,100.00
2022-12-24T23:35:39.571Z,100.00
2022-12-24T23:38:08.141Z,100.00
2022-12-24T23:40:36.496Z,100.00
2022-12-24T23:43:04.854Z,100.00
2022-12-24T23:45:34.697Z,100.00
2022-12-24T23:48:03.057Z,100.00
2022-12-24T23:50:31.603Z,100.00
2022-12-24T23:52:59.964Z,100.00
2022-12-24T23:55:28.690Z,100.00
2022-12-24T23:57:57.108Z,100.00
